sensor_id;sensor_type;location;lat;lon;timestamp;temperature;humidity
29201;DHT22;16244;51.956;12.980;2023-02-19T00:01:09;6.70;99.90
29201;DHT22;16244;51.956;12.980;2023-02-19T00:03:37;6.70;99.90
29201;DHT22;16244;51.956;12.980;2023-02-19T00:06:07;6.70;99.90
29201;DHT22;16244;51.956;12.980;2023-02-19T00:08:36;6.70;99.90
29201;DHT22;16244;51.956;12.980;2023-02-19T00:11:06;6.70;99.90
29201;DHT22;16244;51.956;12.980;2023-02-19T00:13:34;6.70;99.90
29201;DHT22;16244;51.956;12.980;2023-02-19T00:16:04;6.70;99.90
29201;DHT22;16244;51.956;12.980;2023-02-19T00:18:34;6.60;99.90
29201;DHT22;16244;51.956;12.980;2023-02-19T00:21:02;6.70;99.90
29201;DHT22;16244;51.956;12.980;2023-02-19T00:23:31;6.70;99.90
29201;DHT22;16244;51.956;12.980;2023-02-19T00:26:01;6.70;99.90
29201;DHT22;16244;51.956;12.980;2023-02-19T00:28:29;6.70;99.90
29201;DHT22;16244;51.956;12.980;2023-02-19T00:31:03;6.60;99.90
29201;DHT22;16244;51.956;12.980;2023-02-19T00:33:31;6.60;99.90
29201;DHT22;16244;51.956;12.980;2023-02-19T00:36:01;6.70;99.90
29201;DHT22;16244;51.956;12.980;2023-02-19T00:38:30;6.60;99.90
29201;DHT22;16244;51.956;12.980;2023-02-19T00:40:58;6.60;99.90
29201;DHT22;16244;51.956;12.980;2023-02-19T00:43:26;6.60;99.90
29201;DHT22;16244;51.956;12.980;2023-02-19T00:45:54;6.60;99.90
29201;DHT22;16244;51.956;12.980;2023-02-19T00:48:21;6.60;99.90
29201;DHT22;16244;51.956;12.980;2023-02-19T00:50:49;6.60;99.90
29201;DHT22;16244;51.956;12.980;2023-02-19T00:53:18;6.60;99.90
29201;DHT22;16244;51.956;12.980;2023-02-19T00:55:45;6.60;99.90
29201;DHT22;16244;51.956;12.980;2023-02-19T00:58:13;6.60;99.90
29201;DHT22;16244;51.956;12.980;2023-02-19T01:00:41;6.60;99.90
29201;DHT22;16244;51.956;12.980;2023-02-19T01:03:08;6.60;99.90
29201;DHT22;16244;51.956;12.980;2023-02-19T01:05:36;6.60;99.90
29201;DHT22;16244;51.956;12.980;2023-02-19T01:08:03;6.60;99.90
29201;DHT22;16244;51.956;12.980;2023-02-19T01:10:32;6.60;99.90
29201;DHT22;16244;51.956;12.980;2023-02-19T01:13:00;6.60;99.90
29201;DHT22;16244;51.956;12.980;2023-02-19T01:15:27;6.60;99.90
29201;DHT22;16244;51.956;12.980;2023-02-19T01:17:54;6.70;99.90
29201;DHT22;16244;51.956;12.980;2023-02-19T01:20:22;6.70;99.90
29201;DHT22;16244;51.956;12.980;2023-02-19T01:22:49;6.70;99.90
29201;DHT22;16244;51.956;12.980;2023-02-19T01:25:17;6.70;99.90
29201;DHT22;16244;51.956;12.980;2023-02-19T01:27:46;6.60;99.90
29201;DHT22;16244;51.956;12.980;2023-02-19T01:30:13;6.60;99.90
29201;DHT22;16244;51.956;12.980;2023-02-19T01:32:41;6.70;99.90
29201;DHT22;16244;51.956;12.980;2023-02-19T01:35:09;6.70;99.90
29201;DHT22;16244;51.956;12.980;2023-02-19T01:37:37;6.50;99.90
29201;DHT22;16244;51.956;12.980;2023-02-19T01:40:05;6.60;99.90
29201;DHT22;16244;51.956;12.980;2023-02-19T01:42:33;6.70;99.90
29201;DHT22;16244;51.956;12.980;2023-02-19T01:45:21;6.70;99.90
29201;DHT22;16244;51.956;12.980;2023-02-19T01:47:54;6.70;99.90
29201;DHT22;16244;51.956;12.980;2023-02-19T01:50:23;6.70;99.90
29201;DHT22;16244;51.956;12.980;2023-02-19T01:52:53;6.70;99.90
29201;DHT22;16244;51.956;12.980;2023-02-19T01:55:21;6.70;99.90
29201;DHT22;16244;51.956;12.980;2023-02-19T01:57:52;6.70;99.90
29201;DHT22;16244;51.956;12.980;2023-02-19T02:00:22;6.70;99.90
29201;DHT22;16244;51.956;12.980;2023-02-19T02:02:52;6.60;99.90
29201;DHT22;16244;51.956;12.980;2023-02-19T02:05:28;6.70;99.90
29201;DHT22;16244;51.956;12.980;2023-02-19T02:07:59;6.70;99.90
29201;DHT22;16244;51.956;12.980;2023-02-19T02:10:45;6.80;99.90
29201;DHT22;16244;51.956;12.980;2023-02-19T02:13:13;6.70;99.90
29201;DHT22;16244;51.956;12.980;2023-02-19T02:15:48;6.70;99.90
29201;DHT22;16244;51.956;12.980;2023-02-19T02:18:24;6.70;99.90
29201;DHT22;16244;51.956;12.980;2023-02-19T02:21:21;6.70;99.90
29201;DHT22;16244;51.956;12.980;2023-02-19T02:24:05;6.70;99.90
29201;DHT22;16244;51.956;12.980;2023-02-19T02:26:50;6.70;99.90
29201;DHT22;16244;51.956;12.980;2023-02-19T02:29:43;6.70;99.90
29201;DHT22;16244;51.956;12.980;2023-02-19T02:32:14;6.70;99.90
29201;DHT22;16244;51.956;12.980;2023-02-19T02:34:47;6.80;99.90
29201;DHT22;16244;51.956;12.980;2023-02-19T02:37:15;6.80;99.90
29201;DHT22;16244;51.956;12.980;2023-02-19T02:39:45;6.70;99.90
29201;DHT22;16244;51.956;12.980;2023-02-19T02:42:12;6.80;99.90
29201;DHT22;16244;51.956;12.980;2023-02-19T02:44:57;6.70;99.90
29201;DHT22;16244;51.956;12.980;2023-02-19T02:47:46;6.50;99.90
29201;DHT22;16244;51.956;12.980;2023-02-19T02:50:18;6.50;99.90
29201;DHT22;16244;51.956;12.980;2023-02-19T02:52:49;6.60;99.90
29201;DHT22;16244;51.956;12.980;2023-02-19T02:55:38;6.70;99.90
29201;DHT22;16244;51.956;12.980;2023-02-19T02:58:08;6.70;99.90
29201;DHT22;16244;51.956;12.980;2023-02-19T03:00:38;6.70;99.90
29201;DHT22;16244;51.956;12.980;2023-02-19T03:03:26;6.70;99.90
29201;DHT22;16244;51.956;12.980;2023-02-19T03:05:58;6.70;99.90
29201;DHT22;16244;51.956;12.980;2023-02-19T03:08:30;6.70;99.90
29201;DHT22;16244;51.956;12.980;2023-02-19T03:11:00;6.70;99.90
29201;DHT22;16244;51.956;12.980;2023-02-19T03:13:51;6.80;99.90
29201;DHT22;16244;51.956;12.980;2023-02-19T03:16:41;6.60;99.90
29201;DHT22;16244;51.956;12.980;2023-02-19T03:19:28;6.40;99.90
29201;DHT22;16244;51.956;12.980;2023-02-19T03:21:59;6.40;99.90
29201;DHT22;16244;51.956;12.980;2023-02-19T03:24:30;6.60;99.90
29201;DHT22;16244;51.956;12.980;2023-02-19T03:27:17;6.50;99.90
29201;DHT22;16244;51.956;12.980;2023-02-19T03:29:48;6.50;99.90
29201;DHT22;16244;51.956;12.980;2023-02-19T03:32:22;6.60;99.90
29201;DHT22;16244;51.956;12.980;2023-02-19T03:34:54;6.50;99.90
29201;DHT22;16244;51.956;12.980;2023-02-19T03:37:26;6.60;99.90
29201;DHT22;16244;51.956;12.980;2023-02-19T03:39:55;6.50;99.90
29201;DHT22;16244;51.956;12.980;2023-02-19T03:42:34;6.40;99.90
29201;DHT22;16244;51.956;12.980;2023-02-19T03:45:16;6.40;99.90
29201;DHT22;16244;51.956;12.980;2023-02-19T03:47:50;6.40;99.90
29201;DHT22;16244;51.956;12.980;2023-02-19T03:50:22;6.40;99.90
29201;DHT22;16244;51.956;12.980;2023-02-19T03:52:57;6.50;99.90
29201;DHT22;16244;51.956;12.980;2023-02-19T03:55:33;6.40;99.90
29201;DHT22;16244;51.956;12.980;2023-02-19T03:58:06;6.40;99.90
29201;DHT22;16244;51.956;12.980;2023-02-19T04:00:39;6.40;99.90
29201;DHT22;16244;51.956;12.980;2023-02-19T04:03:17;6.40;99.90
29201;DHT22;16244;51.956;12.980;2023-02-19T04:05:49;6.30;99.90
29201;DHT22;16244;51.956;12.980;2023-02-19T04:08:21;6.20;99.90
29201;DHT22;16244;51.956;12.980;2023-02-19T04:10:51;6.20;99.90
29201;DHT22;16244;51.956;12.980;2023-02-19T04:13:21;6.10;99.90
29201;DHT22;16244;51.956;12.980;2023-02-19T04:15:50;6.10;99.90
29201;DHT22;16244;51.956;12.980;2023-02-19T04:18:23;6.00;99.90
29201;DHT22;16244;51.956;12.980;2023-02-19T04:20:52;6.00;99.90
29201;DHT22;16244;51.956;12.980;2023-02-19T04:23:22;5.90;99.90
29201;DHT22;16244;51.956;12.980;2023-02-19T04:25:54;5.90;99.90
29201;DHT22;16244;51.956;12.980;2023-02-19T04:28:22;5.40;99.90
29201;DHT22;16244;51.956;12.980;2023-02-19T04:30:50;5.00;99.90
29201;DHT22;16244;51.956;12.980;2023-02-19T04:33:17;4.80;99.90
29201;DHT22;16244;51.956;12.980;2023-02-19T04:35:46;4.80;99.90
29201;DHT22;16244;51.956;12.980;2023-02-19T04:38:13;4.70;99.90
29201;DHT22;16244;51.956;12.980;2023-02-19T04:40:41;4.70;99.90
29201;DHT22;16244;51.956;12.980;2023-02-19T04:43:08;4.60;99.90
29201;DHT22;16244;51.956;12.980;2023-02-19T04:45:36;4.70;99.90
29201;DHT22;16244;51.956;12.980;2023-02-19T04:48:04;4.60;99.90
29201;DHT22;16244;51.956;12.980;2023-02-19T04:50:31;4.50;99.90
29201;DHT22;16244;51.956;12.980;2023-02-19T04:53:00;4.50;99.90
29201;DHT22;16244;51.956;12.980;2023-02-19T04:55:27;4.60;99.90
29201;DHT22;16244;51.956;12.980;2023-02-19T04:57:55;4.50;99.90
29201;DHT22;16244;51.956;12.980;2023-02-19T05:00:22;4.40;99.90
29201;DHT22;16244;51.956;12.980;2023-02-19T05:02:50;4.40;99.90
29201;DHT22;16244;51.956;12.980;2023-02-19T05:05:17;4.40;99.90
29201;DHT22;16244;51.956;12.980;2023-02-19T05:07:44;4.30;99.90
29201;DHT22;16244;51.956;12.980;2023-02-19T05:10:13;4.30;99.90
29201;DHT22;16244;51.956;12.980;2023-02-19T05:12:41;4.30;99.90
29201;DHT22;16244;51.956;12.980;2023-02-19T05:15:08;4.20;99.90
29201;DHT22;16244;51.956;12.980;2023-02-19T05:17:36;4.20;99.90
29201;DHT22;16244;51.956;12.980;2023-02-19T05:20:04;4.10;99.90
29201;DHT22;16244;51.956;12.980;2023-02-19T05:22:31;4.20;99.90
29201;DHT22;16244;51.956;12.980;2023-02-19T05:24:59;4.10;99.90
29201;DHT22;16244;51.956;12.980;2023-02-19T05:27:29;4.00;99.90
29201;DHT22;16244;51.956;12.980;2023-02-19T05:29:57;3.90;99.90
29201;DHT22;16244;51.956;12.980;2023-02-19T05:32:24;3.80;99.90
29201;DHT22;16244;51.956;12.980;2023-02-19T05:34:52;3.80;99.90
29201;DHT22;16244;51.956;12.980;2023-02-19T05:37:19;3.70;99.90
29201;DHT22;16244;51.956;12.980;2023-02-19T05:39:47;3.70;99.90
29201;DHT22;16244;51.956;12.980;2023-02-19T05:42:15;3.60;99.90
29201;DHT22;16244;51.956;12.980;2023-02-19T05:44:44;3.50;99.90
29201;DHT22;16244;51.956;12.980;2023-02-19T05:47:11;3.40;99.90
29201;DHT22;16244;51.956;12.980;2023-02-19T05:49:39;3.40;99.90
29201;DHT22;16244;51.956;12.980;2023-02-19T05:52:07;3.40;99.90
29201;DHT22;16244;51.956;12.980;2023-02-19T05:54:34;3.40;99.90
29201;DHT22;16244;51.956;12.980;2023-02-19T05:57:01;3.40;99.90
29201;DHT22;16244;51.956;12.980;2023-02-19T05:59:29;3.30;99.90
29201;DHT22;16244;51.956;12.980;2023-02-19T06:01:58;3.30;99.90
29201;DHT22;16244;51.956;12.980;2023-02-19T06:04:25;3.30;99.90
29201;DHT22;16244;51.956;12.980;2023-02-19T06:06:53;3.20;99.90
29201;DHT22;16244;51.956;12.980;2023-02-19T06:09:20;3.20;99.90
29201;DHT22;16244;51.956;12.980;2023-02-19T06:11:48;3.10;99.90
29201;DHT22;16244;51.956;12.980;2023-02-19T06:14:15;3.10;99.90
29201;DHT22;16244;51.956;12.980;2023-02-19T06:16:42;3.00;99.90
29201;DHT22;16244;51.956;12.980;2023-02-19T06:19:11;2.90;99.90
29201;DHT22;16244;51.956;12.980;2023-02-19T06:21:39;3.00;99.90
29201;DHT22;16244;51.956;12.980;2023-02-19T06:24:07;3.00;99.90
29201;DHT22;16244;51.956;12.980;2023-02-19T06:26:35;3.00;99.90
29201;DHT22;16244;51.956;12.980;2023-02-19T06:29:03;3.10;99.90
29201;DHT22;16244;51.956;12.980;2023-02-19T06:31:30;3.10;99.90
29201;DHT22;16244;51.956;12.980;2023-02-19T06:33:58;3.10;99.90
29201;DHT22;16244;51.956;12.980;2023-02-19T06:36:27;3.10;99.90
29201;DHT22;16244;51.956;12.980;2023-02-19T06:38:58;3.10;99.90
29201;DHT22;16244;51.956;12.980;2023-02-19T06:41:25;3.10;99.90
29201;DHT22;16244;51.956;12.980;2023-02-19T06:43:53;3.00;99.90
29201;DHT22;16244;51.956;12.980;2023-02-19T06:46:20;3.10;99.90
29201;DHT22;16244;51.956;12.980;2023-02-19T06:48:48;3.20;99.90
29201;DHT22;16244;51.956;12.980;2023-02-19T06:51:17;3.10;99.90
29201;DHT22;16244;51.956;12.980;2023-02-19T06:53:49;3.10;99.90
29201;DHT22;16244;51.956;12.980;2023-02-19T06:56:23;3.20;99.90
29201;DHT22;16244;51.956;12.980;2023-02-19T06:58:52;3.20;99.90
29201;DHT22;16244;51.956;12.980;2023-02-19T07:01:19;3.30;99.90
29201;DHT22;16244;51.956;12.980;2023-02-19T07:03:49;3.30;99.90
29201;DHT22;16244;51.956;12.980;2023-02-19T07:06:17;3.30;99.90
29201;DHT22;16244;51.956;12.980;2023-02-19T07:08:45;3.20;99.90
29201;DHT22;16244;51.956;12.980;2023-02-19T07:11:14;3.20;99.90
29201;DHT22;16244;51.956;12.980;2023-02-19T07:13:42;3.20;99.90
29201;DHT22;16244;51.956;12.980;2023-02-19T07:16:10;3.20;99.90
29201;DHT22;16244;51.956;12.980;2023-02-19T07:18:38;3.30;99.90
29201;DHT22;16244;51.956;12.980;2023-02-19T07:21:07;3.20;99.90
29201;DHT22;16244;51.956;12.980;2023-02-19T07:23:36;3.20;99.90
29201;DHT22;16244;51.956;12.980;2023-02-19T07:26:09;3.20;99.90
29201;DHT22;16244;51.956;12.980;2023-02-19T07:28:40;3.30;99.90
29201;DHT22;16244;51.956;12.980;2023-02-19T07:31:08;3.30;99.90
29201;DHT22;16244;51.956;12.980;2023-02-19T07:33:35;3.40;99.90
29201;DHT22;16244;51.956;12.980;2023-02-19T07:36:06;3.40;99.90
29201;DHT22;16244;51.956;12.980;2023-02-19T07:38:34;3.30;99.90
29201;DHT22;16244;51.956;12.980;2023-02-19T07:41:03;3.40;99.90
29201;DHT22;16244;51.956;12.980;2023-02-19T07:43:32;3.40;99.90
29201;DHT22;16244;51.956;12.980;2023-02-19T07:46:03;3.50;99.90
29201;DHT22;16244;51.956;12.980;2023-02-19T07:48:30;3.60;99.90
29201;DHT22;16244;51.956;12.980;2023-02-19T07:51:00;3.70;99.90
29201;DHT22;16244;51.956;12.980;2023-02-19T07:53:28;3.80;99.90
29201;DHT22;16244;51.956;12.980;2023-02-19T07:55:58;3.90;99.90
29201;DHT22;16244;51.956;12.980;2023-02-19T07:58:26;3.90;99.90
29201;DHT22;16244;51.956;12.980;2023-02-19T08:00:54;3.90;99.90
29201;DHT22;16244;51.956;12.980;2023-02-19T08:03:23;3.90;99.90
29201;DHT22;16244;51.956;12.980;2023-02-19T08:05:49;4.00;99.90
29201;DHT22;16244;51.956;12.980;2023-02-19T08:08:18;3.80;99.90
29201;DHT22;16244;51.956;12.980;2023-02-19T08:10:46;3.80;99.90
29201;DHT22;16244;51.956;12.980;2023-02-19T08:13:31;3.70;99.90
29201;DHT22;16244;51.956;12.980;2023-02-19T08:16:10;3.70;99.90
29201;DHT22;16244;51.956;12.980;2023-02-19T08:18:39;3.70;99.90
29201;DHT22;16244;51.956;12.980;2023-02-19T08:21:07;3.80;99.90
29201;DHT22;16244;51.956;12.980;2023-02-19T08:23:35;3.70;99.90
29201;DHT22;16244;51.956;12.980;2023-02-19T08:26:03;3.80;99.90
29201;DHT22;16244;51.956;12.980;2023-02-19T08:28:30;3.70;99.90
29201;DHT22;16244;51.956;12.980;2023-02-19T08:30:59;3.70;99.90
29201;DHT22;16244;51.956;12.980;2023-02-19T08:33:27;3.80;99.90
29201;DHT22;16244;51.956;12.980;2023-02-19T08:36:00;3.70;99.90
29201;DHT22;16244;51.956;12.980;2023-02-19T08:38:30;3.80;99.90
29201;DHT22;16244;51.956;12.980;2023-02-19T08:40:59;3.80;99.90
29201;DHT22;16244;51.956;12.980;2023-02-19T08:43:26;3.80;99.90
29201;DHT22;16244;51.956;12.980;2023-02-19T08:45:54;3.90;99.90
29201;DHT22;16244;51.956;12.980;2023-02-19T08:48:21;4.40;99.90
29201;DHT22;16244;51.956;12.980;2023-02-19T08:50:53;5.10;97.70
29201;DHT22;16244;51.956;12.980;2023-02-19T08:53:23;5.70;94.70
29201;DHT22;16244;51.956;12.980;2023-02-19T08:55:51;5.90;94.10
29201;DHT22;16244;51.956;12.980;2023-02-19T08:58:18;6.00;94.80
29201;DHT22;16244;51.956;12.980;2023-02-19T09:00:46;6.20;94.30
29201;DHT22;16244;51.956;12.980;2023-02-19T09:03:14;6.20;93.40
29201;DHT22;16244;51.956;12.980;2023-02-19T09:05:41;5.90;92.40
29201;DHT22;16244;51.956;12.980;2023-02-19T09:08:09;5.70;93.90
29201;DHT22;16244;51.956;12.980;2023-02-19T09:10:39;5.80;94.40
29201;DHT22;16244;51.956;12.980;2023-02-19T09:13:06;6.10;93.80
29201;DHT22;16244;51.956;12.980;2023-02-19T09:15:34;6.20;93.30
29201;DHT22;16244;51.956;12.980;2023-02-19T09:18:03;6.20;92.10
29201;DHT22;16244;51.956;12.980;2023-02-19T09:20:31;6.30;91.60
29201;DHT22;16244;51.956;12.980;2023-02-19T09:22:58;6.20;92.00
29201;DHT22;16244;51.956;12.980;2023-02-19T09:25:26;6.30;91.30
29201;DHT22;16244;51.956;12.980;2023-02-19T09:27:55;6.50;92.10
29201;DHT22;16244;51.956;12.980;2023-02-19T09:30:23;6.60;90.10
29201;DHT22;16244;51.956;12.980;2023-02-19T09:32:50;6.50;91.30
29201;DHT22;16244;51.956;12.980;2023-02-19T09:35:18;6.40;91.70
29201;DHT22;16244;51.956;12.980;2023-02-19T09:37:45;6.60;90.00
29201;DHT22;16244;51.956;12.980;2023-02-19T09:40:15;6.70;90.20
29201;DHT22;16244;51.956;12.980;2023-02-19T09:42:47;6.60;90.00
29201;DHT22;16244;51.956;12.980;2023-02-19T09:45:20;6.30;89.60
29201;DHT22;16244;51.956;12.980;2023-02-19T09:47:52;6.50;90.80
29201;DHT22;16244;51.956;12.980;2023-02-19T09:50:23;7.00;89.00
29201;DHT22;16244;51.956;12.980;2023-02-19T09:52:57;7.10;86.70
29201;DHT22;16244;51.956;12.980;2023-02-19T09:55:30;6.90;87.30
29201;DHT22;16244;51.956;12.980;2023-02-19T09:57:59;7.20;86.20
29201;DHT22;16244;51.956;12.980;2023-02-19T10:00:33;7.20;87.70
29201;DHT22;16244;51.956;12.980;2023-02-19T10:03:03;7.70;84.30
29201;DHT22;16244;51.956;12.980;2023-02-19T10:05:32;7.30;82.60
29201;DHT22;16244;51.956;12.980;2023-02-19T10:08:04;6.80;85.20
29201;DHT22;16244;51.956;12.980;2023-02-19T10:10:34;6.60;87.00
29201;DHT22;16244;51.956;12.980;2023-02-19T10:13:14;6.40;87.30
29201;DHT22;16244;51.956;12.980;2023-02-19T10:15:47;6.70;88.10
29201;DHT22;16244;51.956;12.980;2023-02-19T10:18:17;6.50;90.00
29201;DHT22;16244;51.956;12.980;2023-02-19T10:20:47;6.50;87.80
29201;DHT22;16244;51.956;12.980;2023-02-19T10:23:16;6.60;87.60
29201;DHT22;16244;51.956;12.980;2023-02-19T10:25:46;6.90;87.90
29201;DHT22;16244;51.956;12.980;2023-02-19T10:28:17;6.80;89.40
29201;DHT22;16244;51.956;12.980;2023-02-19T10:30:51;6.80;85.20
29201;DHT22;16244;51.956;12.980;2023-02-19T10:33:20;7.20;83.30
29201;DHT22;16244;51.956;12.980;2023-02-19T10:35:53;7.00;82.20
29201;DHT22;16244;51.956;12.980;2023-02-19T10:38:23;7.10;83.40
29201;DHT22;16244;51.956;12.980;2023-02-19T10:40:59;7.10;81.20
29201;DHT22;16244;51.956;12.980;2023-02-19T10:43:29;6.80;81.60
29201;DHT22;16244;51.956;12.980;2023-02-19T10:46:03;6.70;82.10
29201;DHT22;16244;51.956;12.980;2023-02-19T10:48:35;6.20;86.00
29201;DHT22;16244;51.956;12.980;2023-02-19T10:51:06;6.00;87.10
29201;DHT22;16244;51.956;12.980;2023-02-19T10:53:41;5.90;89.20
29201;DHT22;16244;51.956;12.980;2023-02-19T10:56:11;5.90;88.90
29201;DHT22;16244;51.956;12.980;2023-02-19T10:58:40;6.00;88.40
29201;DHT22;16244;51.956;12.980;2023-02-19T11:01:14;6.00;88.70
29201;DHT22;16244;51.956;12.980;2023-02-19T11:03:42;6.10;86.00
29201;DHT22;16244;51.956;12.980;2023-02-19T11:06:10;6.00;87.80
29201;DHT22;16244;51.956;12.980;2023-02-19T11:08:49;6.00;86.20
29201;DHT22;16244;51.956;12.980;2023-02-19T11:11:30;6.10;86.40
29201;DHT22;16244;51.956;12.980;2023-02-19T11:13:59;5.90;86.80
29201;DHT22;16244;51.956;12.980;2023-02-19T11:16:41;6.00;87.10
29201;DHT22;16244;51.956;12.980;2023-02-19T11:19:32;6.10;85.50
29201;DHT22;16244;51.956;12.980;2023-02-19T11:22:18;6.20;82.80
29201;DHT22;16244;51.956;12.980;2023-02-19T11:24:48;6.20;82.70
29201;DHT22;16244;51.956;12.980;2023-02-19T11:27:18;6.20;83.20
29201;DHT22;16244;51.956;12.980;2023-02-19T11:29:47;6.30;84.90
29201;DHT22;16244;51.956;12.980;2023-02-19T11:32:24;6.30;80.90
29201;DHT22;16244;51.956;12.980;2023-02-19T11:35:12;6.30;80.80
29201;DHT22;16244;51.956;12.980;2023-02-19T11:37:52;6.20;83.10
29201;DHT22;16244;51.956;12.980;2023-02-19T11:40:23;6.40;83.90
29201;DHT22;16244;51.956;12.980;2023-02-19T11:42:59;6.40;81.70
29201;DHT22;16244;51.956;12.980;2023-02-19T11:45:37;6.40;79.90
29201;DHT22;16244;51.956;12.980;2023-02-19T11:48:24;6.40;81.30
29201;DHT22;16244;51.956;12.980;2023-02-19T11:51:04;6.30;79.10
29201;DHT22;16244;51.956;12.980;2023-02-19T11:53:40;6.30;80.60
29201;DHT22;16244;51.956;12.980;2023-02-19T11:56:15;6.20;79.60
29201;DHT22;16244;51.956;12.980;2023-02-19T11:59:01;6.20;79.70
29201;DHT22;16244;51.956;12.980;2023-02-19T12:01:45;6.30;81.30
29201;DHT22;16244;51.956;12.980;2023-02-19T12:07:50;6.20;79.80
29201;DHT22;16244;51.956;12.980;2023-02-19T12:10:29;6.30;82.40
29201;DHT22;16244;51.956;12.980;2023-02-19T12:13:06;6.50;80.30
29201;DHT22;16244;51.956;12.980;2023-02-19T12:15:46;6.40;81.50
29201;DHT22;16244;51.956;12.980;2023-02-19T12:18:43;6.40;78.00
29201;DHT22;16244;51.956;12.980;2023-02-19T12:21:25;6.30;78.50
29201;DHT22;16244;51.956;12.980;2023-02-19T12:24:20;6.10;77.90
29201;DHT22;16244;51.956;12.980;2023-02-19T12:27:01;6.20;80.40
29201;DHT22;16244;51.956;12.980;2023-02-19T12:29:41;6.20;80.70
29201;DHT22;16244;51.956;12.980;2023-02-19T12:32:26;6.30;80.70
29201;DHT22;16244;51.956;12.980;2023-02-19T12:35:22;6.40;78.60
29201;DHT22;16244;51.956;12.980;2023-02-19T12:38:00;6.40;77.70
29201;DHT22;16244;51.956;12.980;2023-02-19T12:40:37;6.40;78.50
29201;DHT22;16244;51.956;12.980;2023-02-19T12:43:12;6.40;79.90
29201;DHT22;16244;51.956;12.980;2023-02-19T12:45:45;6.40;79.60
29201;DHT22;16244;51.956;12.980;2023-02-19T12:48:19;6.30;79.80
29201;DHT22;16244;51.956;12.980;2023-02-19T12:50:55;6.20;80.90
29201;DHT22;16244;51.956;12.980;2023-02-19T12:53:32;6.30;83.20
29201;DHT22;16244;51.956;12.980;2023-02-19T12:56:07;6.40;79.30
29201;DHT22;16244;51.956;12.980;2023-02-19T12:58:39;6.30;79.40
29201;DHT22;16244;51.956;12.980;2023-02-19T13:01:09;6.30;78.90
29201;DHT22;16244;51.956;12.980;2023-02-19T13:03:44;6.50;80.20
29201;DHT22;16244;51.956;12.980;2023-02-19T13:06:23;6.50;77.00
29201;DHT22;16244;51.956;12.980;2023-02-19T13:08:57;6.60;78.30
29201;DHT22;16244;51.956;12.980;2023-02-19T13:11:30;6.40;78.70
29201;DHT22;16244;51.956;12.980;2023-02-19T13:14:02;6.50;77.90
29201;DHT22;16244;51.956;12.980;2023-02-19T13:16:36;6.60;79.40
29201;DHT22;16244;51.956;12.980;2023-02-19T13:19:05;6.70;78.10
29201;DHT22;16244;51.956;12.980;2023-02-19T13:21:34;6.70;77.20
29201;DHT22;16244;51.956;12.980;2023-02-19T13:24:24;6.60;74.20
29201;DHT22;16244;51.956;12.980;2023-02-19T13:27:32;6.50;72.60
29201;DHT22;16244;51.956;12.980;2023-02-19T13:30:17;6.30;72.70
29201;DHT22;16244;51.956;12.980;2023-02-19T13:32:58;6.30;72.30
29201;DHT22;16244;51.956;12.980;2023-02-19T13:35:50;6.40;71.70
29201;DHT22;16244;51.956;12.980;2023-02-19T13:38:22;6.40;73.70
29201;DHT22;16244;51.956;12.980;2023-02-19T13:40:55;6.30;74.20
29201;DHT22;16244;51.956;12.980;2023-02-19T13:43:27;6.20;73.80
29201;DHT22;16244;51.956;12.980;2023-02-19T13:45:57;6.30;73.10
29201;DHT22;16244;51.956;12.980;2023-02-19T13:48:28;6.20;73.10
29201;DHT22;16244;51.956;12.980;2023-02-19T13:54:12;6.40;74.40
29201;DHT22;16244;51.956;12.980;2023-02-19T13:56:42;6.60;73.60
29201;DHT22;16244;51.956;12.980;2023-02-19T13:59:33;6.50;76.00
29201;DHT22;16244;51.956;12.980;2023-02-19T14:05:02;6.40;74.00
29201;DHT22;16244;51.956;12.980;2023-02-19T14:07:48;6.50;74.90
29201;DHT22;16244;51.956;12.980;2023-02-19T14:13:58;6.60;74.80
29201;DHT22;16244;51.956;12.980;2023-02-19T14:16:57;6.70;74.60
29201;DHT22;16244;51.956;12.980;2023-02-19T14:19:50;6.60;74.70
29201;DHT22;16244;51.956;12.980;2023-02-19T14:25:53;6.60;76.50
29201;DHT22;16244;51.956;12.980;2023-02-19T14:28:28;6.70;74.70
29201;DHT22;16244;51.956;12.980;2023-02-19T14:31:06;6.70;74.10
29201;DHT22;16244;51.956;12.980;2023-02-19T14:33:37;6.70;73.40
29201;DHT22;16244;51.956;12.980;2023-02-19T14:36:15;6.70;75.50
29201;DHT22;16244;51.956;12.980;2023-02-19T14:38:50;6.70;75.50
29201;DHT22;16244;51.956;12.980;2023-02-19T14:41:19;6.60;74.60
29201;DHT22;16244;51.956;12.980;2023-02-19T14:43:50;6.70;75.90
29201;DHT22;16244;51.956;12.980;2023-02-19T14:46:27;6.70;77.20
29201;DHT22;16244;51.956;12.980;2023-02-19T14:49:02;6.80;77.20
29201;DHT22;16244;51.956;12.980;2023-02-19T14:51:35;6.70;75.40
29201;DHT22;16244;51.956;12.980;2023-02-19T14:54:10;6.70;76.60
29201;DHT22;16244;51.956;12.980;2023-02-19T14:56:42;6.70;75.20
29201;DHT22;16244;51.956;12.980;2023-02-19T14:59:25;6.80;74.70
29201;DHT22;16244;51.956;12.980;2023-02-19T15:01:59;6.80;74.50
29201;DHT22;16244;51.956;12.980;2023-02-19T15:04:33;6.90;74.30
29201;DHT22;16244;51.956;12.980;2023-02-19T15:07:04;6.90;75.30
29201;DHT22;16244;51.956;12.980;2023-02-19T15:09:36;6.90;75.90
29201;DHT22;16244;51.956;12.980;2023-02-19T15:12:06;7.00;76.10
29201;DHT22;16244;51.956;12.980;2023-02-19T15:14:34;7.00;74.10
29201;DHT22;16244;51.956;12.980;2023-02-19T15:17:04;7.00;75.00
29201;DHT22;16244;51.956;12.980;2023-02-19T15:19:34;6.90;75.80
29201;DHT22;16244;51.956;12.980;2023-02-19T15:22:05;7.00;77.00
29201;DHT22;16244;51.956;12.980;2023-02-19T15:24:35;6.90;78.00
29201;DHT22;16244;51.956;12.980;2023-02-19T15:27:02;6.80;78.20
29201;DHT22;16244;51.956;12.980;2023-02-19T15:29:30;6.80;76.30
29201;DHT22;16244;51.956;12.980;2023-02-19T15:31:58;6.70;73.50
29201;DHT22;16244;51.956;12.980;2023-02-19T15:34:30;6.60;75.50
29201;DHT22;16244;51.956;12.980;2023-02-19T15:37:00;6.60;75.90
29201;DHT22;16244;51.956;12.980;2023-02-19T15:39:32;6.50;76.20
29201;DHT22;16244;51.956;12.980;2023-02-19T15:42:02;6.40;77.10
29201;DHT22;16244;51.956;12.980;2023-02-19T15:44:37;6.30;75.80
29201;DHT22;16244;51.956;12.980;2023-02-19T15:47:14;6.30;73.90
29201;DHT22;16244;51.956;12.980;2023-02-19T15:49:50;6.20;75.40
29201;DHT22;16244;51.956;12.980;2023-02-19T15:52:25;6.10;76.50
29201;DHT22;16244;51.956;12.980;2023-02-19T15:54:56;6.00;77.20
29201;DHT22;16244;51.956;12.980;2023-02-19T15:57:29;5.90;77.60
29201;DHT22;16244;51.956;12.980;2023-02-19T16:00:03;5.90;76.80
29201;DHT22;16244;51.956;12.980;2023-02-19T16:02:33;5.90;77.80
29201;DHT22;16244;51.956;12.980;2023-02-19T16:05:10;5.80;76.10
29201;DHT22;16244;51.956;12.980;2023-02-19T16:07:38;5.80;74.40
29201;DHT22;16244;51.956;12.980;2023-02-19T16:10:17;5.80;74.40
29201;DHT22;16244;51.956;12.980;2023-02-19T16:12:57;5.70;76.80
29201;DHT22;16244;51.956;12.980;2023-02-19T16:15:25;5.60;77.40
29201;DHT22;16244;51.956;12.980;2023-02-19T16:17:53;5.60;76.40